sensor_id;sensor_type;location;lat;lon;timestamp;P1;durP1;ratioP1;P2;durP2;ratioP2
73136;SDS011;67767;45.636;11.756;2023-04-23T00:00:15;35.13;;;22.02;;
73136;SDS011;67767;45.636;11.756;2023-04-23T00:02:43;31.88;;;21.60;;
73136;SDS011;67767;45.636;11.756;2023-04-23T00:05:10;35.10;;;21.70;;
73136;SDS011;67767;45.636;11.756;2023-04-23T00:07:37;36.00;;;21.55;;
73136;SDS011;67767;45.636;11.756;2023-04-23T00:10:04;32.90;;;21.02;;
73136;SDS011;67767;45.636;11.756;2023-04-23T00:12:32;39.63;;;23.08;;
73136;SDS011;67767;45.636;11.756;2023-04-23T00:14:58;33.37;;;22.00;;
73136;SDS011;67767;45.636;11.756;2023-04-23T00:17:25;31.37;;;20.93;;
73136;SDS011;67767;45.636;11.756;2023-04-23T00:19:50;33.60;;;21.67;;
73136;SDS011;67767;45.636;11.756;2023-04-23T00:22:16;39.20;;;23.50;;
73136;SDS011;67767;45.636;11.756;2023-04-23T00:24:44;34.75;;;22.52;;
73136;SDS011;67767;45.636;11.756;2023-04-23T00:27:10;35.65;;;23.05;;
73136;SDS011;67767;45.636;11.756;2023-04-23T00:29:35;33.50;;;22.53;;
73136;SDS011;67767;45.636;11.756;2023-04-23T00:32:01;34.88;;;21.75;;
73136;SDS011;67767;45.636;11.756;2023-04-23T00:34:27;38.38;;;24.00;;
73136;SDS011;67767;45.636;11.756;2023-04-23T00:36:53;36.33;;;23.07;;
73136;SDS011;67767;45.636;11.756;2023-04-23T00:39:19;37.35;;;22.88;;
73136;SDS011;67767;45.636;11.756;2023-04-23T00:41:45;38.15;;;23.75;;
73136;SDS011;67767;45.636;11.756;2023-04-23T00:44:11;35.20;;;22.53;;
73136;SDS011;67767;45.636;11.756;2023-04-23T00:46:37;37.72;;;23.88;;
73136;SDS011;67767;45.636;11.756;2023-04-23T00:49:03;36.15;;;23.25;;
73136;SDS011;67767;45.636;11.756;2023-04-23T00:51:29;38.53;;;23.35;;
73136;SDS011;67767;45.636;11.756;2023-04-23T00:53:56;35.90;;;23.07;;
73136;SDS011;67767;45.636;11.756;2023-04-23T00:56:22;35.15;;;22.70;;
73136;SDS011;67767;45.636;11.756;2023-04-23T00:58:50;35.92;;;22.42;;
73136;SDS011;67767;45.636;11.756;2023-04-23T01:01:16;38.30;;;23.33;;
73136;SDS011;67767;45.636;11.756;2023-04-23T01:03:44;37.63;;;22.60;;
73136;SDS011;67767;45.636;11.756;2023-04-23T01:06:12;38.47;;;22.87;;
73136;SDS011;67767;45.636;11.756;2023-04-23T01:08:39;34.63;;;23.00;;
73136;SDS011;67767;45.636;11.756;2023-04-23T01:11:07;36.10;;;22.80;;
73136;SDS011;67767;45.636;11.756;2023-04-23T01:13:33;36.55;;;23.55;;
73136;SDS011;67767;45.636;11.756;2023-04-23T01:16:00;38.17;;;22.10;;
73136;SDS011;67767;45.636;11.756;2023-04-23T01:18:26;36.30;;;22.47;;
73136;SDS011;67767;45.636;11.756;2023-04-23T01:20:53;39.08;;;23.75;;
73136;SDS011;67767;45.636;11.756;2023-04-23T01:23:19;35.17;;;23.30;;
73136;SDS011;67767;45.636;11.756;2023-04-23T01:25:45;38.17;;;23.02;;
73136;SDS011;67767;45.636;11.756;2023-04-23T01:28:11;35.50;;;22.50;;
73136;SDS011;67767;45.636;11.756;2023-04-23T01:30:37;36.65;;;22.75;;
73136;SDS011;67767;45.636;11.756;2023-04-23T01:33:03;34.70;;;22.13;;
73136;SDS011;67767;45.636;11.756;2023-04-23T01:35:30;34.60;;;21.80;;
73136;SDS011;67767;45.636;11.756;2023-04-23T01:37:57;35.50;;;22.55;;
73136;SDS011;67767;45.636;11.756;2023-04-23T01:40:26;39.55;;;23.17;;
73136;SDS011;67767;45.636;11.756;2023-04-23T01:42:52;34.80;;;22.58;;
73136;SDS011;67767;45.636;11.756;2023-04-23T01:45:18;36.50;;;22.50;;
73136;SDS011;67767;45.636;11.756;2023-04-23T01:47:44;37.92;;;22.23;;
73136;SDS011;67767;45.636;11.756;2023-04-23T01:50:11;35.33;;;21.50;;
73136;SDS011;67767;45.636;11.756;2023-04-23T01:52:37;37.40;;;22.80;;
73136;SDS011;67767;45.636;11.756;2023-04-23T01:55:03;37.42;;;22.17;;
73136;SDS011;67767;45.636;11.756;2023-04-23T01:57:29;37.65;;;21.38;;
73136;SDS011;67767;45.636;11.756;2023-04-23T02:00:08;38.23;;;23.23;;
73136;SDS011;67767;45.636;11.756;2023-04-23T02:02:35;36.60;;;22.13;;
73136;SDS011;67767;45.636;11.756;2023-04-23T02:05:03;32.97;;;20.85;;
73136;SDS011;67767;45.636;11.756;2023-04-23T02:07:33;34.33;;;20.92;;
73136;SDS011;67767;45.636;11.756;2023-04-23T02:09:59;36.38;;;22.55;;
73136;SDS011;67767;45.636;11.756;2023-04-23T02:12:25;37.63;;;21.57;;
73136;SDS011;67767;45.636;11.756;2023-04-23T02:14:52;38.78;;;22.35;;
73136;SDS011;67767;45.636;11.756;2023-04-23T02:17:19;35.78;;;22.77;;
73136;SDS011;67767;45.636;11.756;2023-04-23T02:19:46;32.97;;;20.67;;
73136;SDS011;67767;45.636;11.756;2023-04-23T02:22:13;34.60;;;21.27;;
73136;SDS011;67767;45.636;11.756;2023-04-23T02:24:39;35.75;;;21.75;;
73136;SDS011;67767;45.636;11.756;2023-04-23T02:27:06;32.13;;;21.27;;
73136;SDS011;67767;45.636;11.756;2023-04-23T02:29:32;34.60;;;21.33;;
73136;SDS011;67767;45.636;11.756;2023-04-23T02:31:58;33.90;;;20.98;;
73136;SDS011;67767;45.636;11.756;2023-04-23T02:34:24;30.23;;;20.17;;
73136;SDS011;67767;45.636;11.756;2023-04-23T02:36:49;32.85;;;20.85;;
73136;SDS011;67767;45.636;11.756;2023-04-23T02:39:15;34.57;;;21.30;;
73136;SDS011;67767;45.636;11.756;2023-04-23T02:41:41;36.50;;;21.70;;
73136;SDS011;67767;45.636;11.756;2023-04-23T02:44:06;34.50;;;21.47;;
73136;SDS011;67767;45.636;11.756;2023-04-23T02:46:32;35.85;;;21.55;;
73136;SDS011;67767;45.636;11.756;2023-04-23T02:49:00;36.10;;;21.83;;
73136;SDS011;67767;45.636;11.756;2023-04-23T02:51:25;35.75;;;21.70;;
73136;SDS011;67767;45.636;11.756;2023-04-23T02:53:51;33.97;;;20.83;;
73136;SDS011;67767;45.636;11.756;2023-04-23T02:56:17;37.08;;;21.27;;
73136;SDS011;67767;45.636;11.756;2023-04-23T02:58:43;33.90;;;21.35;;
73136;SDS011;67767;45.636;11.756;2023-04-23T03:01:09;35.07;;;21.07;;
73136;SDS011;67767;45.636;11.756;2023-04-23T03:03:35;35.78;;;21.95;;
73136;SDS011;67767;45.636;11.756;2023-04-23T03:06:00;35.90;;;21.40;;
73136;SDS011;67767;45.636;11.756;2023-04-23T03:08:27;36.17;;;20.55;;
73136;SDS011;67767;45.636;11.756;2023-04-23T03:10:52;37.47;;;22.10;;
73136;SDS011;67767;45.636;11.756;2023-04-23T03:13:18;40.03;;;21.47;;
73136;SDS011;67767;45.636;11.756;2023-04-23T03:15:44;34.20;;;20.63;;
73136;SDS011;67767;45.636;11.756;2023-04-23T03:18:09;35.50;;;21.23;;
73136;SDS011;67767;45.636;11.756;2023-04-23T03:20:35;34.73;;;21.57;;
73136;SDS011;67767;45.636;11.756;2023-04-23T03:23:01;35.92;;;21.70;;
73136;SDS011;67767;45.636;11.756;2023-04-23T03:25:30;36.22;;;21.30;;
73136;SDS011;67767;45.636;11.756;2023-04-23T03:27:56;39.78;;;23.15;;
73136;SDS011;67767;45.636;11.756;2023-04-23T03:30:22;40.27;;;22.07;;
73136;SDS011;67767;45.636;11.756;2023-04-23T03:32:49;38.10;;;21.73;;
73136;SDS011;67767;45.636;11.756;2023-04-23T03:35:14;37.92;;;22.13;;
73136;SDS011;67767;45.636;11.756;2023-04-23T03:37:40;37.65;;;22.30;;
73136;SDS011;67767;45.636;11.756;2023-04-23T03:40:06;36.53;;;21.57;;
73136;SDS011;67767;45.636;11.756;2023-04-23T03:42:34;37.33;;;22.50;;
73136;SDS011;67767;45.636;11.756;2023-04-23T03:45:00;35.63;;;22.35;;
73136;SDS011;67767;45.636;11.756;2023-04-23T03:47:26;34.73;;;23.03;;
73136;SDS011;67767;45.636;11.756;2023-04-23T03:49:52;34.83;;;23.13;;
73136;SDS011;67767;45.636;11.756;2023-04-23T03:52:18;38.65;;;22.88;;
73136;SDS011;67767;45.636;11.756;2023-04-23T03:54:44;36.43;;;22.03;;
73136;SDS011;67767;45.636;11.756;2023-04-23T03:57:10;34.47;;;21.37;;
73136;SDS011;67767;45.636;11.756;2023-04-23T03:59:38;33.80;;;21.27;;
73136;SDS011;67767;45.636;11.756;2023-04-23T04:02:04;33.50;;;20.77;;
73136;SDS011;67767;45.636;11.756;2023-04-23T04:04:30;34.35;;;20.70;;
73136;SDS011;67767;45.636;11.756;2023-04-23T04:06:57;33.43;;;20.67;;
73136;SDS011;67767;45.636;11.756;2023-04-23T04:09:25;33.75;;;20.55;;
73136;SDS011;67767;45.636;11.756;2023-04-23T04:11:51;34.10;;;20.77;;
73136;SDS011;67767;45.636;11.756;2023-04-23T04:14:18;37.50;;;22.08;;
73136;SDS011;67767;45.636;11.756;2023-04-23T04:16:44;36.53;;;21.90;;
73136;SDS011;67767;45.636;11.756;2023-04-23T04:19:10;34.70;;;21.67;;
73136;SDS011;67767;45.636;11.756;2023-04-23T04:21:36;35.42;;;21.65;;
73136;SDS011;67767;45.636;11.756;2023-04-23T04:24:02;36.03;;;21.43;;
73136;SDS011;67767;45.636;11.756;2023-04-23T04:26:31;38.58;;;21.52;;
73136;SDS011;67767;45.636;11.756;2023-04-23T04:28:58;37.95;;;21.95;;
73136;SDS011;67767;45.636;11.756;2023-04-23T04:31:25;37.13;;;22.08;;
73136;SDS011;67767;45.636;11.756;2023-04-23T04:33:55;40.72;;;22.17;;
73136;SDS011;67767;45.636;11.756;2023-04-23T04:36:22;34.93;;;21.40;;
73136;SDS011;67767;45.636;11.756;2023-04-23T04:38:49;37.28;;;21.55;;
73136;SDS011;67767;45.636;11.756;2023-04-23T04:41:16;36.50;;;21.65;;
73136;SDS011;67767;45.636;11.756;2023-04-23T04:43:44;33.70;;;21.30;;
73136;SDS011;67767;45.636;11.756;2023-04-23T04:46:10;34.45;;;20.90;;
73136;SDS011;67767;45.636;11.756;2023-04-23T04:48:36;35.73;;;20.97;;
73136;SDS011;67767;45.636;11.756;2023-04-23T04:51:03;34.22;;;20.88;;
73136;SDS011;67767;45.636;11.756;2023-04-23T04:53:28;36.63;;;22.10;;
73136;SDS011;67767;45.636;11.756;2023-04-23T04:55:54;33.87;;;20.43;;
73136;SDS011;67767;45.636;11.756;2023-04-23T04:58:20;36.40;;;21.13;;
73136;SDS011;67767;45.636;11.756;2023-04-23T05:00:46;33.40;;;20.73;;
73136;SDS011;67767;45.636;11.756;2023-04-23T05:03:16;37.30;;;21.98;;
73136;SDS011;67767;45.636;11.756;2023-04-23T05:05:42;36.30;;;22.37;;
73136;SDS011;67767;45.636;11.756;2023-04-23T05:08:09;36.13;;;21.67;;
73136;SDS011;67767;45.636;11.756;2023-04-23T05:10:35;37.83;;;22.67;;
73136;SDS011;67767;45.636;11.756;2023-04-23T05:13:01;38.72;;;22.55;;
73136;SDS011;67767;45.636;11.756;2023-04-23T05:15:27;40.97;;;23.80;;
73136;SDS011;67767;45.636;11.756;2023-04-23T05:17:52;37.92;;;21.27;;
73136;SDS011;67767;45.636;11.756;2023-04-23T05:20:18;39.03;;;22.83;;
73136;SDS011;67767;45.636;11.756;2023-04-23T05:22:45;35.00;;;20.85;;
73136;SDS011;67767;45.636;11.756;2023-04-23T05:25:10;38.03;;;21.75;;
73136;SDS011;67767;45.636;11.756;2023-04-23T05:27:36;39.25;;;21.95;;
73136;SDS011;67767;45.636;11.756;2023-04-23T05:30:04;35.77;;;21.27;;
73136;SDS011;67767;45.636;11.756;2023-04-23T05:32:34;35.72;;;22.08;;
73136;SDS011;67767;45.636;11.756;2023-04-23T05:35:00;39.58;;;23.02;;
73136;SDS011;67767;45.636;11.756;2023-04-23T05:37:30;38.38;;;22.13;;
73136;SDS011;67767;45.636;11.756;2023-04-23T05:39:56;39.70;;;23.13;;
73136;SDS011;67767;45.636;11.756;2023-04-23T05:42:22;42.40;;;22.97;;
73136;SDS011;67767;45.636;11.756;2023-04-23T05:44:48;37.00;;;23.35;;
73136;SDS011;67767;45.636;11.756;2023-04-23T05:47:13;40.83;;;23.27;;
73136;SDS011;67767;45.636;11.756;2023-04-23T05:49:39;38.33;;;22.37;;
73136;SDS011;67767;45.636;11.756;2023-04-23T05:52:05;41.17;;;22.83;;
73136;SDS011;67767;45.636;11.756;2023-04-23T05:54:31;37.40;;;22.97;;
73136;SDS011;67767;45.636;11.756;2023-04-23T05:56:56;37.20;;;22.92;;
73136;SDS011;67767;45.636;11.756;2023-04-23T05:59:23;39.70;;;23.25;;
73136;SDS011;67767;45.636;11.756;2023-04-23T06:01:48;38.20;;;22.67;;
73136;SDS011;67767;45.636;11.756;2023-04-23T06:04:14;38.35;;;23.15;;
73136;SDS011;67767;45.636;11.756;2023-04-23T06:06:43;36.15;;;22.23;;
73136;SDS011;67767;45.636;11.756;2023-04-23T06:09:09;37.22;;;23.50;;
73136;SDS011;67767;45.636;11.756;2023-04-23T06:11:35;38.53;;;23.70;;
73136;SDS011;67767;45.636;11.756;2023-04-23T06:14:01;39.45;;;23.33;;
73136;SDS011;67767;45.636;11.756;2023-04-23T06:16:27;36.40;;;22.80;;
73136;SDS011;67767;45.636;11.756;2023-04-23T06:18:53;38.87;;;22.70;;
73136;SDS011;67767;45.636;11.756;2023-04-23T06:21:20;39.53;;;22.92;;
73136;SDS011;67767;45.636;11.756;2023-04-23T06:23:47;35.47;;;21.77;;
73136;SDS011;67767;45.636;11.756;2023-04-23T06:26:12;36.47;;;22.20;;
73136;SDS011;67767;45.636;11.756;2023-04-23T06:28:40;35.30;;;21.45;;
73136;SDS011;67767;45.636;11.756;2023-04-23T06:31:06;36.30;;;21.05;;
73136;SDS011;67767;45.636;11.756;2023-04-23T06:33:32;39.25;;;22.20;;
73136;SDS011;67767;45.636;11.756;2023-04-23T06:36:00;37.67;;;21.27;;
73136;SDS011;67767;45.636;11.756;2023-04-23T06:38:26;33.67;;;20.63;;
73136;SDS011;67767;45.636;11.756;2023-04-23T06:40:51;34.50;;;21.03;;
73136;SDS011;67767;45.636;11.756;2023-04-23T06:43:17;33.03;;;20.38;;
73136;SDS011;67767;45.636;11.756;2023-04-23T06:45:43;33.80;;;20.63;;
73136;SDS011;67767;45.636;11.756;2023-04-23T06:48:08;31.80;;;19.85;;
73136;SDS011;67767;45.636;11.756;2023-04-23T06:50:34;32.55;;;19.58;;
73136;SDS011;67767;45.636;11.756;2023-04-23T06:53:00;31.63;;;18.83;;
73136;SDS011;67767;45.636;11.756;2023-04-23T06:55:26;32.90;;;19.75;;
73136;SDS011;67767;45.636;11.756;2023-04-23T06:57:53;30.53;;;18.87;;
73136;SDS011;67767;45.636;11.756;2023-04-23T07:00:19;31.88;;;19.25;;
73136;SDS011;67767;45.636;11.756;2023-04-23T07:02:45;34.78;;;19.75;;
73136;SDS011;67767;45.636;11.756;2023-04-23T07:05:11;29.85;;;17.70;;
73136;SDS011;67767;45.636;11.756;2023-04-23T07:07:36;32.07;;;20.20;;
73136;SDS011;67767;45.636;11.756;2023-04-23T07:10:06;28.95;;;17.88;;
73136;SDS011;67767;45.636;11.756;2023-04-23T07:12:32;28.92;;;17.27;;
73136;SDS011;67767;45.636;11.756;2023-04-23T07:14:57;28.10;;;16.73;;
73136;SDS011;67767;45.636;11.756;2023-04-23T07:17:23;28.98;;;17.77;;
73136;SDS011;67767;45.636;11.756;2023-04-23T07:19:49;25.27;;;15.73;;
73136;SDS011;67767;45.636;11.756;2023-04-23T07:22:15;27.33;;;16.83;;
73136;SDS011;67767;45.636;11.756;2023-04-23T07:24:41;28.88;;;17.05;;
73136;SDS011;67767;45.636;11.756;2023-04-23T07:27:07;28.03;;;16.87;;
73136;SDS011;67767;45.636;11.756;2023-04-23T07:29:32;27.40;;;16.42;;
73136;SDS011;67767;45.636;11.756;2023-04-23T07:31:58;23.13;;;14.57;;
73136;SDS011;67767;45.636;11.756;2023-04-23T07:34:24;27.17;;;15.90;;
73136;SDS011;67767;45.636;11.756;2023-04-23T07:36:50;26.43;;;16.57;;
73136;SDS011;67767;45.636;11.756;2023-04-23T07:39:16;27.92;;;16.20;;
73136;SDS011;67767;45.636;11.756;2023-04-23T07:41:42;26.48;;;16.67;;
73136;SDS011;67767;45.636;11.756;2023-04-23T07:44:07;24.30;;;15.93;;
73136;SDS011;67767;45.636;11.756;2023-04-23T07:46:33;27.45;;;16.50;;
73136;SDS011;67767;45.636;11.756;2023-04-23T07:48:59;27.70;;;16.43;;
73136;SDS011;67767;45.636;11.756;2023-04-23T07:51:24;26.17;;;16.08;;
73136;SDS011;67767;45.636;11.756;2023-04-23T07:53:51;24.85;;;15.65;;
73136;SDS011;67767;45.636;11.756;2023-04-23T07:56:19;22.13;;;14.50;;
73136;SDS011;67767;45.636;11.756;2023-04-23T07:58:46;22.73;;;14.17;;
73136;SDS011;67767;45.636;11.756;2023-04-23T08:01:12;21.98;;;14.38;;
73136;SDS011;67767;45.636;11.756;2023-04-23T08:03:37;21.87;;;13.80;;
73136;SDS011;67767;45.636;11.756;2023-04-23T08:06:04;21.63;;;13.10;;
73136;SDS011;67767;45.636;11.756;2023-04-23T08:08:30;21.65;;;14.48;;
73136;SDS011;67767;45.636;11.756;2023-04-23T08:10:56;22.47;;;14.73;;
73136;SDS011;67767;45.636;11.756;2023-04-23T08:13:22;24.27;;;14.13;;
73136;SDS011;67767;45.636;11.756;2023-04-23T08:15:47;22.33;;;14.15;;
73136;SDS011;67767;45.636;11.756;2023-04-23T08:18:13;23.60;;;14.77;;
73136;SDS011;67767;45.636;11.756;2023-04-23T08:20:39;24.30;;;14.75;;
73136;SDS011;67767;45.636;11.756;2023-04-23T08:23:05;24.33;;;14.93;;
73136;SDS011;67767;45.636;11.756;2023-04-23T08:25:31;19.80;;;13.60;;
73136;SDS011;67767;45.636;11.756;2023-04-23T08:27:57;23.70;;;14.13;;
73136;SDS011;67767;45.636;11.756;2023-04-23T08:30:23;22.70;;;14.55;;
73136;SDS011;67767;45.636;11.756;2023-04-23T08:32:49;20.80;;;13.82;;
73136;SDS011;67767;45.636;11.756;2023-04-23T08:35:17;23.07;;;14.57;;
73136;SDS011;67767;45.636;11.756;2023-04-23T08:37:43;22.98;;;15.77;;
73136;SDS011;67767;45.636;11.756;2023-04-23T08:40:09;24.13;;;15.48;;
73136;SDS011;67767;45.636;11.756;2023-04-23T08:42:42;24.95;;;16.63;;
73136;SDS011;67767;45.636;11.756;2023-04-23T08:45:36;24.55;;;14.90;;
73136;SDS011;67767;45.636;11.756;2023-04-23T08:48:05;21.23;;;13.40;;
73136;SDS011;67767;45.636;11.756;2023-04-23T08:50:33;21.42;;;13.55;;
73136;SDS011;67767;45.636;11.756;2023-04-23T08:53:02;21.98;;;15.35;;
73136;SDS011;67767;45.636;11.756;2023-04-23T08:55:33;25.35;;;14.73;;
73136;SDS011;67767;45.636;11.756;2023-04-23T08:58:00;23.70;;;13.98;;
73136;SDS011;67767;45.636;11.756;2023-04-23T09:00:27;22.90;;;14.13;;
73136;SDS011;67767;45.636;11.756;2023-04-23T09:02:54;22.25;;;14.98;;
73136;SDS011;67767;45.636;11.756;2023-04-23T09:05:20;24.67;;;15.25;;
73136;SDS011;67767;45.636;11.756;2023-04-23T09:07:46;23.35;;;15.45;;
73136;SDS011;67767;45.636;11.756;2023-04-23T09:10:12;23.10;;;15.63;;
73136;SDS011;67767;45.636;11.756;2023-04-23T09:12:39;24.45;;;16.33;;
73136;SDS011;67767;45.636;11.756;2023-04-23T09:15:07;23.98;;;15.27;;
73136;SDS011;67767;45.636;11.756;2023-04-23T09:17:40;25.10;;;15.43;;
73136;SDS011;67767;45.636;11.756;2023-04-23T09:20:07;20.33;;;13.75;;
73136;SDS011;67767;45.636;11.756;2023-04-23T09:22:40;21.63;;;13.80;;
73136;SDS011;67767;45.636;11.756;2023-04-23T09:25:09;20.83;;;14.00;;
73136;SDS011;67767;45.636;11.756;2023-04-23T09:27:37;18.98;;;12.15;;
73136;SDS011;67767;45.636;11.756;2023-04-23T09:30:04;19.67;;;12.82;;
73136;SDS011;67767;45.636;11.756;2023-04-23T09:32:35;16.42;;;11.20;;
73136;SDS011;67767;45.636;11.756;2023-04-23T09:35:03;16.87;;;11.30;;
73136;SDS011;67767;45.636;11.756;2023-04-23T09:37:29;20.17;;;13.25;;
73136;SDS011;67767;45.636;11.756;2023-04-23T09:39:59;19.92;;;13.13;;
73136;SDS011;67767;45.636;11.756;2023-04-23T09:42:27;20.38;;;13.70;;
73136;SDS011;67767;45.636;11.756;2023-04-23T09:44:56;20.83;;;14.03;;
73136;SDS011;67767;45.636;11.756;2023-04-23T09:47:33;21.65;;;13.32;;
73136;SDS011;67767;45.636;11.756;2023-04-23T09:50:02;17.85;;;11.20;;
73136;SDS011;67767;45.636;11.756;2023-04-23T09:52:32;21.90;;;12.45;;
73136;SDS011;67767;45.636;11.756;2023-04-23T09:55:02;20.60;;;12.82;;
73136;SDS011;67767;45.636;11.756;2023-04-23T09:57:41;19.43;;;13.07;;
73136;SDS011;67767;45.636;11.756;2023-04-23T10:00:13;19.02;;;13.18;;
73136;SDS011;67767;45.636;11.756;2023-04-23T10:02:46;18.25;;;11.88;;
73136;SDS011;67767;45.636;11.756;2023-04-23T10:05:14;18.08;;;13.32;;
73136;SDS011;67767;45.636;11.756;2023-04-23T10:07:40;20.40;;;12.98;;
73136;SDS011;67767;45.636;11.756;2023-04-23T10:10:09;18.53;;;12.63;;
73136;SDS011;67767;45.636;11.756;2023-04-23T10:12:35;15.20;;;10.95;;
73136;SDS011;67767;45.636;11.756;2023-04-23T10:15:02;16.98;;;11.13;;
73136;SDS011;67767;45.636;11.756;2023-04-23T10:17:29;16.47;;;10.83;;
73136;SDS011;67767;45.636;11.756;2023-04-23T10:19:55;13.00;;;8.98;;
73136;SDS011;67767;45.636;11.756;2023-04-23T10:22:24;13.85;;;9.57;;
73136;SDS011;67767;45.636;11.756;2023-04-23T10:24:52;16.67;;;10.82;;
73136;SDS011;67767;45.636;11.756;2023-04-23T10:27:22;15.23;;;9.82;;
73136;SDS011;67767;45.636;11.756;2023-04-23T10:29:51;14.00;;;9.67;;
73136;SDS011;67767;45.636;11.756;2023-04-23T10:32:18;13.82;;;9.43;;
73136;SDS011;67767;45.636;11.756;2023-04-23T10:34:45;16.33;;;10.10;;
73136;SDS011;67767;45.636;11.756;2023-04-23T10:37:11;15.82;;;10.48;;
73136;SDS011;67767;45.636;11.756;2023-04-23T10:39:39;16.38;;;9.50;;
73136;SDS011;67767;45.636;11.756;2023-04-23T10:42:08;13.67;;;9.17;;
73136;SDS011;67767;45.636;11.756;2023-04-23T10:44:37;15.68;;;9.80;;
73136;SDS011;67767;45.636;11.756;2023-04-23T10:47:04;14.63;;;9.98;;
73136;SDS011;67767;45.636;11.756;2023-04-23T10:49:31;15.23;;;9.68;;
73136;SDS011;67767;45.636;11.756;2023-04-23T10:51:58;13.75;;;9.60;;
73136;SDS011;67767;45.636;11.756;2023-04-23T10:54:29;12.47;;;7.90;;
73136;SDS011;67767;45.636;11.756;2023-04-23T10:57:02;12.25;;;8.48;;
73136;SDS011;67767;45.636;11.756;2023-04-23T10:59:30;15.90;;;9.00;;
73136;SDS011;67767;45.636;11.756;2023-04-23T11:01:57;13.43;;;8.63;;
73136;SDS011;67767;45.636;11.756;2023-04-23T11:04:29;10.80;;;7.05;;
73136;SDS011;67767;45.636;11.756;2023-04-23T11:07:05;10.23;;;5.57;;
73136;SDS011;67767;45.636;11.756;2023-04-23T11:09:47;9.80;;;5.72;;
73136;SDS011;67767;45.636;11.756;2023-04-23T11:14:48;8.52;;;4.75;;
73136;SDS011;67767;45.636;11.756;2023-04-23T11:17:20;8.55;;;5.45;;
73136;SDS011;67767;45.636;11.756;2023-04-23T11:25:14;10.13;;;6.72;;
73136;SDS011;67767;45.636;11.756;2023-04-23T11:27:45;13.02;;;7.68;;
73136;SDS011;67767;45.636;11.756;2023-04-23T11:30:16;11.45;;;7.03;;
73136;SDS011;67767;45.636;11.756;2023-04-23T11:32:44;9.63;;;6.10;;
73136;SDS011;67767;45.636;11.756;2023-04-23T11:35:14;8.73;;;5.60;;
73136;SDS011;67767;45.636;11.756;2023-04-23T11:37:42;9.20;;;6.55;;
73136;SDS011;67767;45.636;11.756;2023-04-23T11:40:10;7.85;;;5.30;;
73136;SDS011;67767;45.636;11.756;2023-04-23T11:45:22;6.60;;;4.07;;
73136;SDS011;67767;45.636;11.756;2023-04-23T11:47:53;6.35;;;3.70;;
73136;SDS011;67767;45.636;11.756;2023-04-23T11:50:27;7.18;;;3.78;;
73136;SDS011;67767;45.636;11.756;2023-04-23T11:52:54;5.75;;;3.28;;
73136;SDS011;67767;45.636;11.756;2023-04-23T11:55:21;5.60;;;3.00;;
73136;SDS011;67767;45.636;11.756;2023-04-23T11:57:50;5.93;;;2.70;;
73136;SDS011;67767;45.636;11.756;2023-04-23T12:00:18;4.25;;;2.63;;
73136;SDS011;67767;45.636;11.756;2023-04-23T12:02:55;4.70;;;2.45;;
73136;SDS011;67767;45.636;11.756;2023-04-23T12:08:05;6.53;;;2.72;;
73136;SDS011;67767;45.636;11.756;2023-04-23T12:10:33;5.53;;;2.60;;
73136;SDS011;67767;45.636;11.756;2023-04-23T12:13:11;4.75;;;2.55;;
73136;SDS011;67767;45.636;11.756;2023-04-23T12:15:45;4.40;;;2.50;;
73136;SDS011;67767;45.636;11.756;2023-04-23T12:18:15;4.05;;;2.22;;
73136;SDS011;67767;45.636;11.756;2023-04-23T12:20:42;4.93;;;2.50;;
73136;SDS011;67767;45.636;11.756;2023-04-23T12:23:08;4.20;;;2.27;;
73136;SDS011;67767;45.636;11.756;2023-04-23T12:25:34;5.00;;;2.50;;
73136;SDS011;67767;45.636;11.756;2023-04-23T12:28:02;4.00;;;2.13;;
73136;SDS011;67767;45.636;11.756;2023-04-23T12:30:32;4.68;;;2.33;;
73136;SDS011;67767;45.636;11.756;2023-04-23T12:32:59;3.97;;;2.13;;
73136;SDS011;67767;45.636;11.756;2023-04-23T12:35:39;4.43;;;2.22;;
73136;SDS011;67767;45.636;11.756;2023-04-23T12:38:06;5.68;;;2.20;;
73136;SDS011;67767;45.636;11.756;2023-04-23T12:40:44;4.97;;;2.40;;
73136;SDS011;67767;45.636;11.756;2023-04-23T12:43:10;4.37;;;2.20;;
73136;SDS011;67767;45.636;11.756;2023-04-23T12:45:36;4.88;;;2.47;;
73136;SDS011;67767;45.636;11.756;2023-04-23T12:48:02;3.78;;;2.10;;
73136;SDS011;67767;45.636;11.756;2023-04-23T12:50:28;5.50;;;2.13;;
73136;SDS011;67767;45.636;11.756;2023-04-23T12:52:54;4.22;;;2.20;;
73136;SDS011;67767;45.636;11.756;2023-04-23T12:55:20;3.73;;;2.00;;
73136;SDS011;67767;45.636;11.756;2023-04-23T12:57:45;4.72;;;1.92;;
73136;SDS011;67767;45.636;11.756;2023-04-23T13:00:11;4.47;;;1.95;;
73136;SDS011;67767;45.636;11.756;2023-04-23T13:02:37;6.50;;;2.40;;
73136;SDS011;67767;45.636;11.756;2023-04-23T13:05:03;4.13;;;1.90;;
73136;SDS011;67767;45.636;11.756;2023-04-23T13:07:29;5.72;;;2.53;;
73136;SDS011;67767;45.636;11.756;2023-04-23T13:09:55;4.10;;;2.00;;
73136;SDS011;67767;45.636;11.756;2023-04-23T13:12:23;4.10;;;2.00;;
73136;SDS011;67767;45.636;11.756;2023-04-23T13:14:49;4.70;;;2.22;;
73136;SDS011;67767;45.636;11.756;2023-04-23T13:17:15;3.83;;;2.25;;
73136;SDS011;67767;45.636;11.756;2023-04-23T13:19:40;6.77;;;2.83;;
73136;SDS011;67767;45.636;11.756;2023-04-23T13:22:06;5.07;;;2.33;;
73136;SDS011;67767;45.636;11.756;2023-04-23T13:24:32;4.07;;;2.28;;
73136;SDS011;67767;45.636;11.756;2023-04-23T13:26:58;3.95;;;2.20;;
73136;SDS011;67767;45.636;11.756;2023-04-23T13:29:23;4.90;;;2.40;;
73136;SDS011;67767;45.636;11.756;2023-04-23T13:31:52;4.25;;;2.17;;
73136;SDS011;67767;45.636;11.756;2023-04-23T13:34:18;4.15;;;2.45;;
73136;SDS011;67767;45.636;11.756;2023-04-23T13:36:44;5.17;;;2.30;;
73136;SDS011;67767;45.636;11.756;2023-04-23T13:39:09;5.93;;;2.80;;
73136;SDS011;67767;45.636;11.756;2023-04-23T13:41:38;5.72;;;2.33;;
73136;SDS011;67767;45.636;11.756;2023-04-23T13:44:06;4.57;;;2.50;;
73136;SDS011;67767;45.636;11.756;2023-04-23T13:46:31;5.60;;;2.70;;
73136;SDS011;67767;45.636;11.756;2023-04-23T13:48:57;4.07;;;2.20;;
73136;SDS011;67767;45.636;11.756;2023-04-23T13:51:25;4.90;;;2.50;;
73136;SDS011;67767;45.636;11.756;2023-04-23T13:53:50;3.93;;;2.17;;
73136;SDS011;67767;45.636;11.756;2023-04-23T13:56:16;4.70;;;2.28;;
73136;SDS011;67767;45.636;11.756;2023-04-23T13:58:42;5.13;;;2.33;;
73136;SDS011;67767;45.636;11.756;2023-04-23T14:01:10;4.22;;;2.25;;
73136;SDS011;67767;45.636;11.756;2023-04-23T14:03:37;4.57;;;2.33;;
73136;SDS011;67767;45.636;11.756;2023-04-23T14:06:03;4.72;;;2.45;;
73136;SDS011;67767;45.636;11.756;2023-04-23T14:08:29;8.53;;;2.70;;
73136;SDS011;67767;45.636;11.756;2023-04-23T14:10:55;5.25;;;2.70;;
73136;SDS011;67767;45.636;11.756;2023-04-23T14:13:21;5.32;;;2.60;;
73136;SDS011;67767;45.636;11.756;2023-04-23T14:15:47;5.25;;;2.78;;
73136;SDS011;67767;45.636;11.756;2023-04-23T14:18:13;5.77;;;3.00;;
73136;SDS011;67767;45.636;11.756;2023-04-23T14:20:40;3.95;;;2.35;;
73136;SDS011;67767;45.636;11.756;2023-04-23T14:25:47;5.35;;;2.60;;
73136;SDS011;67767;45.636;11.756;2023-04-23T14:30:53;6.30;;;2.97;;
73136;SDS011;67767;45.636;11.756;2023-04-23T14:33:19;5.30;;;2.90;;